< < Back
Terminal Aerodrome Forecast


Current Version              Previous Versions:   1  2  3  4  5  6  7  8  9  

Terminal Aerodrome Forecast

301
FTUS42 KFFC 221900 AAA
TAFMCN
TAF AMD
KMCN 221949Z 2220/2318 31008KT P6SM VCSH SCT050
     FM230100 30004KT P6SM FEW070 SCT250
     FM231500 31007KT P6SM SCT040=



Latest METAR

144
SAUS80 KWBC 231900
MTRMCN
METAR KMCN 231853Z 30008KT 10SM FEW070 36/19 A2993 RMK AO2 SLP128
T03610189 $


USA.gov is the U.S. government's official web portal to all federal, state and local government web resources and services.